Time;durP1;ratioP1;P1;durP2;ratioP2;P2;SDS_P1;SDS_P2;PMS_P1;PMS_P2;Temp;Humidity;BMP_temperature;BMP_pressure;BME280_temperature;BME280_humidity;BME280_pressure;Samples;Min_cycle;Max_cycle;Signal;HPM_P1;HPM_P2
2023/12/19 00:01:56;;;;;;;;;;;;;;;7.53;100.00;101043.28;4982341;28;19929;-82
2023/12/19 00:04:21;;;;;;;;;;;;;;;7.53;100.00;101030.09;4983624;28;19922;-84
2023/12/19 00:06:46;;;;;;;;;;;;;;;7.57;100.00;101039.75;4983547;28;19949;-86
2023/12/19 00:09:12;;;;;;;;;;;;;;;7.57;100.00;101026.56;4983360;28;19922;-86
2023/12/19 00:11:37;;;;;;;;;;;;;;;7.56;100.00;101030.97;4983391;28;19981;-86
2023/12/19 08:56:21;;;;;;;;;;;;;;;6.33;100.00;100745.00;5151495;23;19933;-88
2023/12/19 08:58:48;;;;;;;;;;;;;;;6.47;100.00;100747.50;5032215;28;20380;-85
2023/12/19 09:01:14;;;;;;;;;;;;;;;6.55;100.00;100738.63;5032432;28;19995;-85
2023/12/19 09:03:39;;;;;;;;;;;;;;;6.64;100.00;100735.03;5031972;28;20283;-85
2023/12/19 09:06:04;;;;;;;;;;;;;;;6.73;100.00;100731.41;5032029;28;20489;-87
2023/12/19 09:08:30;;;;;;;;;;;;;;;6.77;100.00;100733.13;5032006;28;20020;-86
2023/12/19 09:10:55;;;;;;;;;;;;;;;6.87;100.00;100736.50;5030605;28;19968;-82
2023/12/19 09:13:21;;;;;;;;;;;;;;;6.92;100.00;100742.59;5030768;28;19918;-87
2023/12/19 09:15:47;;;;;;;;;;;;;;;6.97;100.00;100727.59;5031935;28;20008;-89
2023/12/19 09:18:12;;;;;;;;;;;;;;;7.02;100.00;100733.69;5031838;28;20344;-83
2023/12/19 09:20:37;;;;;;;;;;;;;;;7.07;100.00;100733.63;5030446;28;19917;-88
2023/12/19 09:23:03;;;;;;;;;;;;;;;7.14;100.00;100743.19;5031949;28;19921;-85
2023/12/19 09:25:29;;;;;;;;;;;;;;;7.15;100.00;100739.66;5030737;28;20012;-82
2023/12/19 09:27:55;;;;;;;;;;;;;;;7.23;100.00;100726.38;5030443;28;19967;-82
2023/12/19 09:30:21;;;;;;;;;;;;;;;7.26;100.00;100719.28;5031795;28;19924;-83
2023/12/19 09:32:46;;;;;;;;;;;;;;;7.30;100.00;100721.88;5031588;28;19921;-85
2023/12/19 09:35:11;;;;;;;;;;;;;;;7.31;100.00;100718.34;5031858;28;19917;-85
2023/12/19 09:37:37;;;;;;;;;;;;;;;7.36;100.00;100717.38;5031655;28;19921;-84
2023/12/19 09:40:03;;;;;;;;;;;;;;;7.39;100.00;100717.34;5029716;28;19953;-89
2023/12/19 09:42:31;;;;;;;;;;;;;;;7.41;100.00;100710.28;5031711;28;19917;-83
2023/12/19 09:44:56;;;;;;;;;;;;;;;7.46;100.00;100708.44;5029434;28;19928;-82
2023/12/19 09:47:25;;;;;;;;;;;;;;;7.50;100.00;100709.28;5029827;28;19921;-78
2023/12/19 09:49:57;;;;;;;;;;;;;;;7.51;100.00;100703.09;5033703;28;20058;-84
2023/12/19 09:52:24;;;;;;;;;;;;;;;7.51;100.00;100684.63;5034657;28;19924;-85
2023/12/19 09:54:53;;;;;;;;;;;;;;;7.54;100.00;100671.41;5033544;28;20287;-86
2023/12/19 09:57:19;;;;;;;;;;;;;;;7.57;100.00;100667.84;5034673;28;19921;-88
2023/12/19 09:59:45;;;;;;;;;;;;;;;7.58;100.00;100670.47;5031148;28;20008;-83
2023/12/19 10:02:11;;;;;;;;;;;;;;;7.59;100.00;100671.31;5034335;28;20008;-88
2023/12/19 10:04:36;;;;;;;;;;;;;;;7.61;100.00;100661.63;5030580;28;20403;-85
2023/12/19 10:07:01;;;;;;;;;;;;;;;7.62;100.00;100652.81;5032427;28;19921;-83
2023/12/19 10:09:26;;;;;;;;;;;;;;;7.66;100.00;100651.88;5032078;28;20016;-82
2023/12/19 10:12:04;;;;;;;;;;;;;;;7.69;100.00;100650.94;5032757;28;19921;-84
2023/12/19 10:14:30;;;;;;;;;;;;;;;7.70;100.00;100653.53;5031211;28;19928;-86
2023/12/19 10:16:55;;;;;;;;;;;;;;;7.70;100.00;100653.53;5034200;28;19927;-85
2023/12/19 10:19:28;;;;;;;;;;;;;;;7.72;100.00;100649.13;5029093;28;20291;-83
2023/12/19 10:22:16;;;;;;;;;;;;;;;7.75;100.00;100649.06;5033486;28;19917;-88
2023/12/19 10:24:42;;;;;;;;;;;;;;;7.76;100.00;100637.63;5032651;28;19928;-85
2023/12/19 10:27:07;;;;;;;;;;;;;;;7.77;100.00;100617.38;5033793;28;20845;-86
2023/12/19 10:29:40;;;;;;;;;;;;;;;8.37;100.00;100618.88;5035005;28;20378;-88
2023/12/19 10:32:16;;;;;;;;;;;;;;;6.88;100.00;100620.56;5033929;28;20006;-84
2023/12/19 10:34:41;;;;;;;;;;;;;;;5.78;100.00;100614.88;5034593;28;19933;-85
2023/12/19 10:37:14;;;;;;;;;;;;;;;5.25;100.00;100623.19;5033329;28;19917;-83
2023/12/19 10:39:41;;;;;;;;;;;;;;;4.97;100.00;100616.41;5031224;28;20111;-80
2023/12/19 10:42:09;;;;;;;;;;;;;;;4.78;100.00;100616.50;5032232;28;19975;-88
2023/12/19 10:44:35;;;;;;;;;;;;;;;4.70;100.00;100602.56;5031769;28;20000;-86
2023/12/19 10:47:01;;;;;;;;;;;;;;;4.59;100.00;100605.22;5034450;28;19917;-84
2023/12/19 10:49:28;;;;;;;;;;;;;;;4.43;100.00;100609.69;5031945;28;19921;-87
2023/12/19 10:51:56;;;;;;;;;;;;;;;4.35;100.00;100591.34;5034102;28;20027;-84
2023/12/19 10:54:24;;;;;;;;;;;;;;;4.30;100.00;100592.25;5028921;28;19925;-88
2023/12/19 10:56:59;;;;;;;;;;;;;;;4.24;100.00;100582.66;5031163;28;19961;-81
2023/12/19 10:59:31;;;;;;;;;;;;;;;4.16;100.00;100580.09;5031131;28;19928;-84
2023/12/19 11:02:02;;;;;;;;;;;;;;;4.10;100.00;100574.84;5033550;28;20289;-85
2023/12/19 11:04:30;;;;;;;;;;;;;;;4.08;100.00;100562.63;5033897;28;19917;-84
2023/12/19 11:06:59;;;;;;;;;;;;;;;4.04;100.00;100560.88;5032380;28;19928;-84
2023/12/19 11:09:28;;;;;;;;;;;;;;;3.96;100.00;100566.16;5031267;28;19967;-81
2023/12/19 11:11:54;;;;;;;;;;;;;;;3.92;100.00;100560.03;5033774;28;19917;-84
2023/12/19 11:14:23;;;;;;;;;;;;;;;3.88;100.00;100554.81;5033901;28;19917;-84
2023/12/19 11:16:51;;;;;;;;;;;;;;;3.85;100.00;100553.09;5033925;28;19913;-85
2023/12/19 11:19:22;;;;;;;;;;;;;;;3.93;100.00;100553.06;5033675;28;19971;-84
2023/12/19 11:22:06;;;;;;;;;;;;;;;3.76;100.00;100534.75;5048940;28;20343;-88
2023/12/19 11:24:42;;;;;;;;;;;;;;;3.79;100.00;100538.22;5030530;28;20012;-85
2023/12/19 11:27:16;;;;;;;;;;;;;;;3.75;100.00;100536.50;5033009;28;19917;-87
2023/12/19 11:29:45;;;;;;;;;;;;;;;3.82;100.00;100526.88;5033739;28;19971;-91
2023/12/19 11:32:29;;;;;;;;;;;;;;;4.76;100.00;100526.38;5032461;28;19928;-93
2023/12/19 11:34:55;;;;;;;;;;;;;;;5.39;100.00;100522.34;5033560;28;20041;-90
2023/12/19 11:37:20;;;;;;;;;;;;;;;5.75;100.00;100525.47;5033847;28;19979;-88
2023/12/19 11:39:46;;;;;;;;;;;;;;;5.98;100.00;100527.84;5032076;28;20028;-90
2023/12/19 11:42:29;;;;;;;;;;;;;;;6.18;100.00;100511.81;5033373;28;19913;-86
2023/12/19 11:44:55;;;;;;;;;;;;;;;6.39;100.00;100509.81;5033866;28;19943;-90
2023/12/19 11:47:20;;;;;;;;;;;;;;;6.53;100.00;100498.16;5033679;28;19995;-89
2023/12/19 11:49:45;;;;;;;;;;;;;;;6.63;100.00;100501.53;5032901;28;19983;-93
2023/12/19 11:52:31;;;;;;;;;;;;;;;6.70;100.00;100495.28;5040298;28;19917;-94
2023/12/19 11:54:56;;;;;;;;;;;;;;;6.80;100.00;100484.59;5031594;28;19968;-87
2023/12/19 11:57:22;;;;;;;;;;;;;;;6.85;100.00;100478.34;5036009;28;19979;-94
2023/12/19 11:59:48;;;;;;;;;;;;;;;6.94;100.00;100464.16;5030966;28;20284;-88
2023/12/19 12:02:25;;;;;;;;;;;;;;;7.01;100.00;100463.16;5049653;28;20394;-95
2023/12/19 12:05:01;;;;;;;;;;;;;;;7.07;100.00;100462.19;5033522;28;19921;-91
2023/12/19 12:07:26;;;;;;;;;;;;;;;7.11;100.00;100457.72;5032442;28;20015;-89
2023/12/19 12:09:59;;;;;;;;;;;;;;;7.15;100.00;100443.56;5031102;28;20005;-87
2023/12/19 12:12:32;;;;;;;;;;;;;;;7.19;100.00;100461.09;5031501;28;20276;-87
2023/12/19 12:15:13;;;;;;;;;;;;;;;7.25;100.00;100461.84;5034568;28;19948;-90
2023/12/19 12:17:39;;;;;;;;;;;;;;;7.30;100.00;100468.81;5032689;28;19979;-82
2023/12/19 12:20:06;;;;;;;;;;;;;;;7.31;100.00;100460.88;5031932;28;19917;-84
2023/12/19 12:22:32;;;;;;;;;;;;;;;7.35;100.00;100466.94;5033177;28;20304;-87
2023/12/19 12:24:57;;;;;;;;;;;;;;;7.41;100.00;100448.38;5029665;28;19925;-90
2023/12/19 12:27:22;;;;;;;;;;;;;;;7.43;100.00;100446.56;5032577;28;20446;-84
2023/12/19 12:29:47;;;;;;;;;;;;;;;7.44;100.00;100441.28;5026127;28;20298;-83
2023/12/19 12:32:13;;;;;;;;;;;;;;;7.48;100.00;100434.16;5031204;28;20292;-94
2023/12/19 12:34:38;;;;;;;;;;;;;;;7.50;100.00;100432.38;5035435;28;19921;-84
2023/12/19 12:37:04;;;;;;;;;;;;;;;7.52;100.00;100408.63;5021632;28;19978;-86
2023/12/19 12:39:30;;;;;;;;;;;;;;;7.62;100.00;100404.88;5035181;28;19924;-89
2023/12/19 12:42:05;;;;;;;;;;;;;;;7.63;100.00;100412.75;5033043;28;19923;-91
2023/12/19 12:44:31;;;;;;;;;;;;;;;7.64;100.00;100405.72;5031075;28;19921;-81
2023/12/19 12:46:57;;;;;;;;;;;;;;;7.65;100.00;100402.19;5030433;28;19930;-90
2023/12/19 12:49:22;;;;;;;;;;;;;;;7.67;100.00;100392.44;5032027;28;19952;-94
2023/12/19 12:51:47;;;;;;;;;;;;;;;7.69;100.00;100401.22;5034141;28;19980;-89
2023/12/19 12:54:16;;;;;;;;;;;;;;;7.72;100.00;100405.56;5029093;28;19921;-88
2023/12/19 12:56:42;;;;;;;;;;;;;;;7.77;100.00;100393.13;5022019;28;19932;-89
2023/12/19 12:59:08;;;;;;;;;;;;;;;7.78;100.00;100377.25;5026702;28;19951;-87
2023/12/19 13:01:34;;;;;;;;;;;;;;;7.79;100.00;100378.16;5031823;28;19924;-83
2023/12/19 13:03:59;;;;;;;;;;;;;;;7.81;100.00;100376.34;5029480;28;19931;-87
2023/12/19 13:06:25;;;;;;;;;;;;;;;7.81;100.00;100360.50;5029971;28;20360;-91
2023/12/19 13:08:51;;;;;;;;;;;;;;;7.82;100.00;100357.84;5029743;28;19917;-83
2023/12/19 13:11:17;;;;;;;;;;;;;;;7.85;100.00;100345.47;5028547;28;20045;-90
2023/12/19 13:13:43;;;;;;;;;;;;;;;7.62;100.00;100349.50;5027333;28;20396;-91
2023/12/19 13:16:08;;;;;;;;;;;;;;;6.04;100.00;100353.28;5026611;28;19925;-87
2023/12/19 13:18:33;;;;;;;;;;;;;;;5.43;100.00;100347.97;5029770;28;19943;-90
2023/12/19 13:20:59;;;;;;;;;;;;;;;5.11;100.00;100350.97;5027507;28;19921;-92
2023/12/19 13:23:24;;;;;;;;;;;;;;;4.95;100.00;100345.91;5032078;28;20394;-89
2023/12/19 13:25:50;;;;;;;;;;;;;;;4.77;100.00;100335.56;5033964;28;20393;-86
2023/12/19 13:28:17;;;;;;;;;;;;;;;4.66;100.00;100338.28;5034935;28;19928;-87
2023/12/19 13:30:42;;;;;;;;;;;;;;;4.56;100.00;100337.53;5035932;28;19945;-81
2023/12/19 13:33:08;;;;;;;;;;;;;;;4.49;100.00;100341.97;5034656;28;20039;-89
2023/12/19 13:35:34;;;;;;;;;;;;;;;4.42;100.00;100337.66;5033971;28;19967;-90
2023/12/19 13:37:59;;;;;;;;;;;;;;;4.30;100.00;100337.75;5034475;28;20411;-91
2023/12/19 13:40:25;;;;;;;;;;;;;;;4.30;100.00;100340.38;5034250;28;20265;-89
2023/12/19 13:42:50;;;;;;;;;;;;;;;4.22;100.00;100336.97;5034290;28;19917;-89
2023/12/19 13:45:15;;;;;;;;;;;;;;;4.24;100.00;100324.69;5035461;28;19940;-91
2023/12/19 13:47:40;;;;;;;;;;;;;;;4.09;100.00;100331.81;5034695;28;20376;-89
2023/12/19 13:50:06;;;;;;;;;;;;;;;4.08;100.00;100327.44;5034115;28;20453;-89
2023/12/19 13:52:31;;;;;;;;;;;;;;;4.06;100.00;100326.59;5034716;28;20004;-88
2023/12/19 13:54:56;;;;;;;;;;;;;;;4.06;100.00;100321.34;5034190;28;19924;-91
2023/12/19 13:57:22;;;;;;;;;;;;;;;3.99;100.00;100319.66;5035325;28;19921;-89
2023/12/19 13:59:47;;;;;;;;;;;;;;;3.93;100.00;100310.06;5034293;28;19924;-89
2023/12/19 14:02:17;;;;;;;;;;;;;;;3.97;100.00;100295.19;5035531;28;19917;-85
2023/12/19 14:04:43;;;;;;;;;;;;;;;3.92;100.00;100295.22;5034437;28;19917;-93
2023/12/19 14:07:13;;;;;;;;;;;;;;;3.95;100.00;100291.72;5035086;28;19924;-92
2023/12/19 14:09:39;;;;;;;;;;;;;;;3.84;100.00;100298.78;5033907;28;20333;-89
2023/12/19 14:12:04;;;;;;;;;;;;;;;3.87;100.00;100304.00;5034994;28;20019;-88
2023/12/19 14:14:29;;;;;;;;;;;;;;;3.85;100.00;100295.28;5034782;28;19940;-90
2023/12/19 14:16:56;;;;;;;;;;;;;;;3.76;100.00;100288.34;5035103;28;19923;-90
2023/12/19 14:19:21;;;;;;;;;;;;;;;4.24;100.00;100290.59;5033368;28;19925;-90
2023/12/19 14:21:48;;;;;;;;;;;;;;;5.02;100.00;100296.78;5034886;28;19944;-89
2023/12/19 14:24:13;;;;;;;;;;;;;;;5.45;100.00;100293.59;5033121;28;19925;-90
2023/12/19 14:26:39;;;;;;;;;;;;;;;5.75;100.00;100299.31;5029712;28;19945;-90
2023/12/19 14:29:04;;;;;;;;;;;;;;;6.00;100.00;100299.84;5034249;28;19992;-92
2023/12/19 14:31:29;;;;;;;;;;;;;;;6.16;100.00;100295.22;5034667;28;19925;-91
2023/12/19 14:33:55;;;;;;;;;;;;;;;6.30;100.00;100293.22;5034393;28;19964;-87
2023/12/19 14:36:20;;;;;;;;;;;;;;;6.45;100.00;100292.06;5032959;28;19925;-94
2023/12/19 14:38:45;;;;;;;;;;;;;;;6.54;100.00;100281.38;5034835;28;20446;-93
2023/12/19 14:41:11;;;;;;;;;;;;;;;6.65;100.00;100275.91;5033231;28;19956;-92
2023/12/19 14:43:37;;;;;;;;;;;;;;;6.73;100.00;100266.09;5033264;28;19921;-90
2023/12/19 14:46:03;;;;;;;;;;;;;;;6.84;100.00;100265.84;5033032;28;19944;-93
2023/12/19 14:48:28;;;;;;;;;;;;;;;6.91;100.00;100264.84;5032925;28;19925;-91
2023/12/19 14:50:53;;;;;;;;;;;;;;;6.96;100.00;100264.75;5032634;28;19924;-88
2023/12/19 14:53:19;;;;;;;;;;;;;;;7.02;100.00;100254.09;5032416;28;20341;-93
2023/12/19 14:55:44;;;;;;;;;;;;;;;7.08;100.00;100243.44;5030949;28;20482;-89
2023/12/19 14:58:09;;;;;;;;;;;;;;;7.12;100.00;100244.22;5031871;28;20396;-91
2023/12/19 15:00:35;;;;;;;;;;;;;;;7.19;100.00;100242.31;5033149;28;20375;-93
2023/12/19 15:03:00;;;;;;;;;;;;;;;7.23;100.00;100231.69;5033140;28;20398;-92
2023/12/19 15:05:27;;;;;;;;;;;;;;;7.26;100.00;100223.72;5032791;28;20308;-92
2023/12/19 15:07:52;;;;;;;;;;;;;;;7.28;100.00;100211.34;5032990;28;20002;-93
2023/12/19 15:10:17;;;;;;;;;;;;;;;7.35;100.00;100209.44;5032963;28;20066;-87
2023/12/19 15:12:43;;;;;;;;;;;;;;;7.40;100.00;100201.44;5034020;28;19924;-94
2023/12/19 15:15:08;;;;;;;;;;;;;;;7.41;100.00;100198.75;5034361;28;19928;-84
2023/12/19 15:17:34;;;;;;;;;;;;;;;7.46;100.00;100206.56;5032787;28;19921;-94
2023/12/19 15:19:59;;;;;;;;;;;;;;;7.49;100.00;100218.81;5034445;28;19929;-94
2023/12/19 15:22:25;;;;;;;;;;;;;;;7.51;100.00;100209.94;5036027;28;19975;-92
2023/12/19 15:24:50;;;;;;;;;;;;;;;7.54;100.00;100206.38;5034097;28;19971;-92
2023/12/19 15:27:17;;;;;;;;;;;;;;;7.54;100.00;100201.97;5033391;28;19917;-92
2023/12/19 15:29:42;;;;;;;;;;;;;;;7.57;100.00;100203.69;5033654;28;19927;-92
2023/12/19 15:32:08;;;;;;;;;;;;;;;7.60;100.00;100201.84;5033351;28;19921;-92
2023/12/19 15:34:34;;;;;;;;;;;;;;;7.63;100.00;100193.84;5033469;28;19973;-92
2023/12/19 15:36:59;;;;;;;;;;;;;;;7.66;100.00;100186.75;5032847;28;19940;-91
2023/12/19 15:39:25;;;;;;;;;;;;;;;7.68;100.00;100185.81;5032261;28;20396;-94
2023/12/19 15:41:52;;;;;;;;;;;;;;;7.70;100.00;100185.78;5032541;28;19921;-89
2023/12/19 15:44:17;;;;;;;;;;;;;;;7.72;100.00;100181.34;5032237;28;20020;-93
2023/12/19 15:46:42;;;;;;;;;;;;;;;7.74;100.00;100172.50;5033484;28;20015;-95
2023/12/19 15:49:08;;;;;;;;;;;;;;;7.78;100.00;100183.81;5045632;28;20406;-95
2023/12/19 15:51:33;;;;;;;;;;;;;;;7.81;100.00;100176.69;5033006;28;19925;-93
2023/12/19 15:54:01;;;;;;;;;;;;;;;7.82;100.00;100172.31;5033187;28;20036;-91
2023/12/19 15:56:28;;;;;;;;;;;;;;;7.85;100.00;100160.78;5031447;28;19921;-84
2023/12/19 15:58:54;;;;;;;;;;;;;;;7.70;100.00;100165.53;5035556;28;20008;-93
2023/12/19 16:01:19;;;;;;;;;;;;;;;6.06;100.00;100169.97;5031897;28;20012;-90
2023/12/19 16:03:54;;;;;;;;;;;;;;;5.49;100.00;100168.25;5031004;28;19928;-92
2023/12/19 16:06:19;;;;;;;;;;;;;;;5.14;100.00;100141.66;5034519;28;19947;-87
2023/12/19 16:08:47;;;;;;;;;;;;;;;5.32;100.00;100129.97;5026971;28;20257;-88
2023/12/19 16:11:15;;;;;;;;;;;;;;;6.30;100.00;100139.69;5029356;28;19921;-82
2023/12/19 16:13:41;;;;;;;;;;;;;;;5.46;100.00;100132.41;5027808;28;19928;-83
2023/12/19 16:16:08;;;;;;;;;;;;;;;5.03;100.00;100096.28;5030901;28;20380;-85
2023/12/19 16:18:34;;;;;;;;;;;;;;;4.82;100.00;100114.09;5029009;28;19925;-83
2023/12/19 16:21:01;;;;;;;;;;;;;;;4.77;100.00;100108.03;5032105;28;19919;-86
2023/12/19 16:23:26;;;;;;;;;;;;;;;4.69;100.00;100088.88;5026496;28;20399;-86
2023/12/19 16:25:54;;;;;;;;;;;;;;;4.61;100.00;100080.25;5030964;28;19917;-87
2023/12/19 16:28:20;;;;;;;;;;;;;;;4.55;100.00;100078.59;5031317;28;19912;-88
2023/12/19 16:30:45;;;;;;;;;;;;;;;4.52;100.00;100073.38;5031905;28;19932;-88
2023/12/19 16:33:11;;;;;;;;;;;;;;;4.49;100.00;100068.19;5025343;28;19928;-83
2023/12/19 16:35:37;;;;;;;;;;;;;;;4.39;100.00;100077.94;5030745;28;19922;-86
2023/12/19 16:38:03;;;;;;;;;;;;;;;4.36;100.00;100073.56;5028548;28;19924;-86
2023/12/19 16:40:28;;;;;;;;;;;;;;;4.36;100.00;100091.09;5026926;28;19924;-83
2023/12/19 16:42:53;;;;;;;;;;;;;;;4.31;100.00;100077.16;5026027;28;20372;-84
2023/12/19 16:45:18;;;;;;;;;;;;;;;4.30;100.00;100070.16;5032252;28;19924;-91
2023/12/19 16:47:47;;;;;;;;;;;;;;;4.34;100.00;100061.34;5029285;28;19917;-90
2023/12/19 16:50:12;;;;;;;;;;;;;;;4.22;100.00;100066.78;5027174;28;19925;-84
2023/12/19 16:52:38;;;;;;;;;;;;;;;4.16;100.00;100079.09;5027422;28;19940;-90
2023/12/19 16:55:03;;;;;;;;;;;;;;;4.19;100.00;100075.53;5029412;28;19918;-92
2023/12/19 16:57:32;;;;;;;;;;;;;;;4.17;100.00;100087.81;5028879;28;19921;-89
2023/12/19 16:59:57;;;;;;;;;;;;;;;4.16;100.00;100088.69;5031918;28;19918;-87
2023/12/19 17:02:23;;;;;;;;;;;;;;;4.09;100.00;100087.91;5028930;28;19946;-90
2023/12/19 17:04:48;;;;;;;;;;;;;;;4.05;100.00;100085.31;5029534;28;19921;-86
2023/12/19 17:07:13;;;;;;;;;;;;;;;4.06;100.00;100085.31;5028610;28;19921;-89
2023/12/19 17:09:39;;;;;;;;;;;;;;;3.99;100.00;100089.75;5030548;28;19943;-88
2023/12/19 17:12:04;;;;;;;;;;;;;;;3.97;100.00;100093.28;5031384;28;20017;-82
2023/12/19 17:14:29;;;;;;;;;;;;;;;3.98;100.00;100095.88;5029035;28;19940;-85
2023/12/19 17:16:54;;;;;;;;;;;;;;;3.91;100.00;100080.22;5032000;28;19924;-83
2023/12/19 17:19:20;;;;;;;;;;;;;;;3.88;100.00;100077.63;5029517;28;19928;-85
2023/12/19 17:21:45;;;;;;;;;;;;;;;3.86;100.00;100080.31;5028974;28;20418;-84
2023/12/19 17:24:10;;;;;;;;;;;;;;;3.88;100.00;100090.75;5031447;28;19917;-83
2023/12/19 17:26:38;;;;;;;;;;;;;;;3.82;100.00;100091.69;5029928;28;19917;-84
2023/12/19 17:29:03;;;;;;;;;;;;;;;4.00;100.00;100094.13;5028644;28;19975;-83
2023/12/19 17:31:28;;;;;;;;;;;;;;;4.82;100.00;100098.34;5031538;28;19921;-84
2023/12/19 17:33:54;;;;;;;;;;;;;;;5.22;100.00;100095.09;5031703;28;20210;-83
2023/12/19 17:36:20;;;;;;;;;;;;;;;5.46;100.00;100106.09;5028072;28;19925;-84
2023/12/19 17:38:46;;;;;;;;;;;;;;;5.59;100.00;100101.50;5029536;28;19926;-87
2023/12/19 17:41:11;;;;;;;;;;;;;;;5.69;100.00;100083.81;5029074;28;20257;-84
2023/12/19 17:43:38;;;;;;;;;;;;;;;5.82;100.00;100085.31;5028269;28;19971;-87
2023/12/19 17:46:03;;;;;;;;;;;;;;;5.87;100.00;100079.97;5030498;28;19921;-84
2023/12/19 17:48:28;;;;;;;;;;;;;;;5.89;100.00;100084.31;5025766;28;20008;-92
2023/12/19 17:50:53;;;;;;;;;;;;;;;5.95;100.00;100094.72;5031391;28;19923;-85
2023/12/19 17:53:19;;;;;;;;;;;;;;;5.96;100.00;100090.31;5031283;28;20368;-82
2023/12/19 17:55:44;;;;;;;;;;;;;;;6.00;100.00;100077.09;5028571;28;19975;-88
2023/12/19 17:58:10;;;;;;;;;;;;;;;6.04;100.00;100066.53;5029071;28;19929;-87
2023/12/19 18:00:35;;;;;;;;;;;;;;;6.08;100.00;100062.91;5028334;28;19963;-82
2023/12/19 18:03:01;;;;;;;;;;;;;;;6.17;100.00;100057.47;5029792;28;20349;-84
2023/12/19 18:05:26;;;;;;;;;;;;;;;6.23;100.00;100053.88;5028161;28;20296;-87
2023/12/19 18:07:51;;;;;;;;;;;;;;;6.28;100.00;100039.69;5030858;28;19932;-85
2023/12/19 18:10:16;;;;;;;;;;;;;;;6.33;100.00;100045.75;5029803;28;19943;-83
2023/12/19 18:12:42;;;;;;;;;;;;;;;6.39;100.00;100046.53;5035179;28;20008;-83
2023/12/19 18:15:07;;;;;;;;;;;;;;;6.43;100.00;100038.53;5033875;28;19976;-85
2023/12/19 18:17:32;;;;;;;;;;;;;;;6.51;100.00;100038.31;5032584;28;20027;-81
2023/12/19 18:19:57;;;;;;;;;;;;;;;6.52;100.00;100047.97;5033782;28;19922;-83
2023/12/19 18:22:23;;;;;;;;;;;;;;;6.58;100.00;100042.56;5033386;28;19917;-82
2023/12/19 18:24:48;;;;;;;;;;;;;;;6.65;100.00;100032.75;5033265;28;20019;-82
2023/12/19 18:27:13;;;;;;;;;;;;;;;6.69;100.00;100037.94;5033611;28;19987;-84
2023/12/19 18:29:38;;;;;;;;;;;;;;;6.76;100.00;100029.88;5033311;28;19918;-81
2023/12/19 18:32:04;;;;;;;;;;;;;;;6.81;100.00;100039.44;5032457;28;20457;-82
2023/12/19 18:34:29;;;;;;;;;;;;;;;6.91;100.00;100034.81;5032876;28;19921;-84
2023/12/19 18:36:58;;;;;;;;;;;;;;;7.00;100.00;100028.44;5032882;28;19925;-85
2023/12/19 18:39:23;;;;;;;;;;;;;;;7.10;100.00;100022.06;5033355;28;20358;-91
2023/12/19 18:41:48;;;;;;;;;;;;;;;7.21;100.00;100019.13;5034433;28;20071;-88
2023/12/19 18:44:14;;;;;;;;;;;;;;;7.30;100.00;100031.22;5034758;28;20426;-92
2023/12/19 18:46:40;;;;;;;;;;;;;;;7.37;100.00;100035.41;5035418;28;19924;-86
2023/12/19 18:49:05;;;;;;;;;;;;;;;7.43;100.00;100027.34;5033287;28;19925;-86
2023/12/19 18:51:32;;;;;;;;;;;;;;;7.51;100.00;100024.53;5033328;28;19947;-82
2023/12/19 18:54:00;;;;;;;;;;;;;;;7.55;100.00;100016.50;5032813;28;20269;-86
2023/12/19 18:56:25;;;;;;;;;;;;;;;7.56;100.00;100009.44;5032407;28;20021;-96
2023/12/19 18:58:50;;;;;;;;;;;;;;;7.63;100.00;100019.78;5033595;28;19940;-83
2023/12/19 19:01:16;;;;;;;;;;;;;;;7.65;100.00;100006.56;5034257;28;19925;-86
2023/12/19 19:03:41;;;;;;;;;;;;;;;7.69;100.00;100008.22;5032778;28;19964;-84
2023/12/19 19:06:07;;;;;;;;;;;;;;;7.74;100.00;100001.03;5034060;28;20404;-85
2023/12/19 19:08:32;;;;;;;;;;;;;;;7.79;100.00;99995.63;5033509;28;20446;-84
2023/12/19 19:10:57;;;;;;;;;;;;;;;7.82;100.00;99993.75;5032668;28;20323;-84
2023/12/19 19:13:22;;;;;;;;;;;;;;;7.86;100.00;99988.41;5033479;28;19917;-83
2023/12/19 19:15:52;;;;;;;;;;;;;;;7.88;100.00;99987.47;5033753;28;19921;-85
2023/12/19 19:18:19;;;;;;;;;;;;;;;7.88;100.00;99978.66;5031891;28;20812;-85
2023/12/19 19:20:44;;;;;;;;;;;;;;;7.75;100.00;99973.72;5033296;28;19975;-85
2023/12/19 19:23:15;;;;;;;;;;;;;;;6.91;100.00;99977.72;5033636;28;20292;-84
2023/12/19 19:25:43;;;;;;;;;;;;;;;6.45;100.00;99973.53;5031972;28;20315;-84
2023/12/19 19:28:12;;;;;;;;;;;;;;;6.23;100.00;99967.88;5032340;28;19949;-88
2023/12/19 19:30:41;;;;;;;;;;;;;;;6.05;100.00;99974.44;5032763;28;20016;-93
2023/12/19 19:33:06;;;;;;;;;;;;;;;5.93;100.00;99969.38;5033869;28;20016;-87
2023/12/19 19:35:34;;;;;;;;;;;;;;;5.80;100.00;99966.13;5033234;28;20019;-85
2023/12/19 19:38:01;;;;;;;;;;;;;;;5.70;100.00;99967.25;5033424;28;20438;-84
2023/12/19 19:40:27;;;;;;;;;;;;;;;5.60;100.00;99969.16;5031501;28;19917;-86
2023/12/19 19:42:52;;;;;;;;;;;;;;;5.57;100.00;99966.63;5033396;28;19924;-93
2023/12/19 19:45:17;;;;;;;;;;;;;;;5.54;100.00;99964.91;5032280;28;19918;-88
2023/12/19 19:47:42;;;;;;;;;;;;;;;5.46;100.00;99958.94;5033206;28;19975;-88
2023/12/19 19:50:08;;;;;;;;;;;;;;;5.41;100.00;99960.78;5033161;28;19917;-89
2023/12/19 19:52:33;;;;;;;;;;;;;;;5.36;100.00;99962.59;5032855;28;19917;-88
2023/12/19 19:55:00;;;;;;;;;;;;;;;5.34;100.00;99957.38;5032020;28;19970;-86
2023/12/19 19:57:25;;;;;;;;;;;;;;;5.29;100.00;99956.59;5031669;28;20062;-86
2023/12/19 19:59:54;;;;;;;;;;;;;;;5.26;100.00;99967.16;5033159;28;20333;-91
2023/12/19 20:02:19;;;;;;;;;;;;;;;5.22;100.00;99955.00;5032555;28;20284;-86
2023/12/19 20:04:45;;;;;;;;;;;;;;;5.19;100.00;99945.41;5032698;28;19917;-86
2023/12/19 20:07:12;;;;;;;;;;;;;;;5.12;100.00;99933.25;5032887;28;19986;-86
2023/12/19 20:09:37;;;;;;;;;;;;;;;5.12;100.00;99932.41;5031667;28;19932;-85
2023/12/19 20:12:03;;;;;;;;;;;;;;;5.08;100.00;99932.47;5032806;28;19917;-88
2023/12/19 20:14:28;;;;;;;;;;;;;;;5.08;100.00;99924.56;5032814;28;19917;-88
2023/12/19 20:16:54;;;;;;;;;;;;;;;5.48;100.00;99930.84;5032772;28;19917;-90
2023/12/19 20:19:19;;;;;;;;;;;;;;;5.98;100.00;99926.34;5031452;28;20008;-91
2023/12/19 20:21:47;;;;;;;;;;;;;;;6.28;100.00;99923.91;5032531;28;19921;-84
2023/12/19 20:24:12;;;;;;;;;;;;;;;6.49;100.00;99926.94;5031923;28;20359;-85
2023/12/19 20:26:41;;;;;;;;;;;;;;;6.64;100.00;99910.78;5031350;28;19961;-89
2023/12/19 20:29:07;;;;;;;;;;;;;;;6.76;100.00;99924.53;5031011;28;19924;-86
2023/12/19 20:31:33;;;;;;;;;;;;;;;6.89;100.00;99921.56;5030990;28;19921;-87
2023/12/19 20:33:58;;;;;;;;;;;;;;;6.97;100.00;99918.72;5030451;28;19956;-85
2023/12/19 20:36:23;;;;;;;;;;;;;;;7.18;100.00;99916.41;5032264;28;20023;-84
2023/12/19 20:38:48;;;;;;;;;;;;;;;7.18;100.00;99913.78;5032143;28;19917;-86
2023/12/19 20:41:14;;;;;;;;;;;;;;;7.21;100.00;99904.03;5031747;28;20000;-85
2023/12/19 20:43:39;;;;;;;;;;;;;;;7.26;100.00;99906.56;5031848;28;19923;-84
2023/12/19 20:46:05;;;;;;;;;;;;;;;7.29;100.00;99903.81;5032052;28;19921;-87
2023/12/19 20:48:33;;;;;;;;;;;;;;;7.36;100.00;99896.63;5031997;28;19932;-84
2023/12/19 20:50:58;;;;;;;;;;;;;;;7.38;100.00;99889.53;5030424;28;19921;-87
2023/12/19 20:53:28;;;;;;;;;;;;;;;7.43;100.00;99891.09;5029992;28;20217;-83
2023/12/19 20:55:54;;;;;;;;;;;;;;;7.49;100.00;99884.81;5031444;28;19931;-86
2023/12/19 20:58:19;;;;;;;;;;;;;;;7.54;100.00;99882.03;5030855;28;20351;-82
2023/12/19 21:00:44;;;;;;;;;;;;;;;7.55;100.00;99887.28;5032057;28;20052;-81
2023/12/19 21:03:10;;;;;;;;;;;;;;;7.59;100.00;99888.03;5030856;28;19943;-84
2023/12/19 21:05:38;;;;;;;;;;;;;;;7.59;100.00;99888.03;5031927;28;20020;-90
2023/12/19 21:08:04;;;;;;;;;;;;;;;7.66;100.00;99886.09;5021623;28;19926;-83
2023/12/19 21:10:31;;;;;;;;;;;;;;;7.67;100.00;99875.50;5030605;28;19924;-83
2023/12/19 21:12:57;;;;;;;;;;;;;;;7.73;100.00;99877.97;5031858;28;19921;-85
2023/12/19 21:15:24;;;;;;;;;;;;;;;7.74;100.00;99882.34;5031962;28;19964;-88
2023/12/19 21:17:50;;;;;;;;;;;;;;;7.75;100.00;99870.00;5029836;28;19921;-82